createdAt,value
2019-06-08T00:00:26.996Z,12.09
2019-06-08T00:01:26.870Z,12.06
2019-06-08T00:02:26.875Z,12.06
2019-06-08T00:03:26.903Z,12.06
2019-06-08T00:04:26.880Z,12.10
2019-06-08T00:05:26.840Z,12.10
2019-06-08T00:06:26.828Z,12.12
2019-06-08T00:07:26.816Z,12.15
2019-06-08T00:08:26.794Z,12.17
2019-06-08T00:09:26.832Z,12.17
2019-06-08T00:10:26.789Z,12.17
2019-06-08T00:11:26.765Z,12.15
2019-06-08T00:12:26.771Z,12.20
2019-06-08T00:13:26.818Z,12.21
2019-06-08T00:14:26.748Z,12.20
2019-06-08T00:15:26.732Z,12.17
2019-06-08T00:16:26.727Z,12.13
2019-06-08T00:17:37.676Z,12.10
2019-06-08T00:18:27.706Z,12.07
2019-06-08T00:19:26.681Z,12.06
2019-06-08T00:20:26.705Z,12.10
2019-06-08T00:21:26.679Z,12.09
2019-06-08T00:22:26.666Z,12.07
2019-06-08T00:23:26.624Z,12.06
2019-06-08T00:24:26.625Z,12.06
2019-06-08T00:25:26.650Z,12.09
2019-06-08T00:26:26.604Z,12.06
2019-06-08T00:27:26.627Z,12.02
2019-06-08T00:28:26.598Z,11.95
2019-06-08T00:29:26.656Z,11.94
2019-06-08T00:30:26.551Z,11.90
2019-06-08T00:31:26.628Z,11.84
2019-06-08T00:32:26.542Z,11.77
2019-06-08T00:33:26.523Z,11.81
2019-06-08T00:34:26.525Z,11.81
2019-06-08T00:35:26.505Z,11.83
2019-06-08T00:36:26.521Z,11.78
2019-06-08T00:37:26.478Z,11.70
2019-06-08T00:38:26.468Z,11.68
2019-06-08T00:39:26.461Z,11.66
2019-06-08T00:40:26.489Z,11.66
2019-06-08T00:41:26.478Z,11.63
2019-06-08T00:42:26.540Z,11.62
2019-06-08T00:43:26.410Z,11.60
2019-06-08T00:44:26.428Z,11.63
2019-06-08T00:45:26.501Z,11.63
2019-06-08T00:46:26.461Z,11.59
2019-06-08T00:47:26.872Z,11.54
2019-06-08T00:48:26.385Z,11.54
2019-06-08T00:49:26.359Z,11.51
2019-06-08T00:50:26.373Z,11.48
2019-06-08T00:51:26.390Z,11.48
2019-06-08T00:52:26.311Z,11.48
2019-06-08T00:53:26.353Z,11.48
2019-06-08T00:54:26.282Z,11.48
2019-06-08T00:55:26.288Z,11.50
2019-06-08T00:56:26.315Z,11.48
2019-06-08T00:57:26.260Z,11.50
2019-06-08T00:58:26.439Z,11.52
2019-06-08T00:59:26.333Z,11.52
2019-06-08T01:00:26.762Z,11.54
2019-06-08T01:01:28.074Z,11.54
2019-06-08T01:02:26.762Z,11.54
2019-06-08T01:03:26.190Z,11.60
2019-06-08T01:04:27.198Z,11.63
2019-06-08T01:05:26.188Z,11.60
2019-06-08T01:06:27.369Z,11.62
2019-06-08T01:07:26.350Z,11.63
2019-06-08T01:08:27.389Z,11.66
2019-06-08T01:09:26.370Z,11.57
2019-06-08T01:10:27.477Z,11.55
2019-06-08T01:11:26.976Z,11.51
2019-06-08T01:12:26.776Z,11.45
2019-06-08T01:13:26.953Z,11.35
2019-06-08T01:14:27.080Z,11.35
2019-06-08T01:15:31.061Z,11.30
2019-06-08T01:16:27.138Z,11.26
2019-06-08T01:17:27.318Z,11.27
2019-06-08T01:18:27.366Z,11.26
2019-06-08T01:19:27.258Z,11.25
2019-06-08T01:20:27.342Z,11.23
2019-06-08T01:21:26.001Z,11.19
2019-06-08T01:22:26.008Z,11.17
2019-06-08T01:23:25.976Z,11.11
2019-06-08T01:24:25.959Z,11.05
2019-06-08T01:25:25.952Z,11.00
2019-06-08T01:26:26.071Z,10.96
2019-06-08T01:27:26.121Z,10.90
2019-06-08T01:28:26.185Z,10.86
2019-06-08T01:29:26.312Z,10.86
2019-06-08T01:30:26.338Z,10.81
2019-06-08T01:31:26.574Z,10.81
2019-06-08T01:32:26.411Z,10.79
2019-06-08T01:33:26.613Z,10.84
2019-06-08T01:34:27.034Z,10.82
2019-06-08T01:35:26.923Z,10.84
2019-06-08T01:36:27.393Z,10.86
2019-06-08T01:37:26.939Z,10.89
2019-06-08T01:38:27.101Z,10.92
2019-06-08T01:39:25.792Z,10.96
2019-06-08T01:40:25.796Z,11.00
2019-06-08T01:41:25.834Z,11.10
2019-06-08T01:42:25.869Z,11.15
2019-06-08T01:43:25.912Z,11.22
2019-06-08T01:44:25.737Z,11.29
2019-06-08T01:45:25.727Z,11.40
2019-06-08T01:46:25.943Z,11.54
2019-06-08T01:47:26.171Z,11.65
2019-06-08T01:48:26.301Z,11.73
2019-06-08T01:49:26.184Z,11.83
2019-06-08T01:50:26.432Z,11.91
2019-06-08T01:51:26.541Z,11.99
2019-06-08T01:52:26.590Z,12.03
2019-06-08T01:53:26.815Z,12.10
2019-06-08T01:54:26.849Z,12.17
2019-06-08T01:55:26.970Z,12.22
2019-06-08T01:56:25.612Z,12.29
2019-06-08T01:57:25.595Z,12.37
2019-06-08T01:58:25.577Z,12.42
2019-06-08T01:59:25.691Z,12.43
2019-06-08T02:00:30.342Z,12.47
2019-06-08T02:01:27.671Z,12.54
2019-06-08T02:02:25.936Z,12.57
2019-06-08T02:03:26.244Z,12.78
2019-06-08T02:04:26.009Z,12.91
2019-06-08T02:05:26.071Z,13.01
2019-06-08T02:06:26.176Z,13.13
2019-06-08T02:07:26.327Z,13.15
2019-06-08T02:08:26.563Z,13.18
2019-06-08T02:09:26.534Z,13.19
2019-06-08T02:10:26.406Z,13.19
2019-06-08T02:11:26.637Z,13.15
2019-06-08T02:12:26.660Z,13.16
2019-06-08T02:13:26.792Z,13.15
2019-06-08T02:14:25.405Z,13.20
2019-06-08T02:15:25.389Z,13.25
2019-06-08T02:16:25.688Z,13.28
2019-06-08T02:17:25.459Z,13.35
2019-06-08T02:18:36.345Z,13.42
2019-06-08T02:19:26.607Z,13.47
2019-06-08T02:20:26.306Z,13.46
2019-06-08T02:21:26.674Z,13.53
2019-06-08T02:22:26.680Z,13.53
2019-06-08T02:23:25.302Z,13.50
2019-06-08T02:24:25.289Z,13.44
2019-06-08T02:25:25.306Z,13.41
2019-06-08T02:26:27.564Z,13.42
2019-06-08T02:27:25.269Z,13.38
2019-06-08T02:28:25.249Z,13.38
2019-06-08T02:29:25.261Z,13.42
2019-06-08T02:30:25.259Z,13.37
2019-06-08T02:31:25.317Z,13.30
2019-06-08T02:32:25.217Z,13.27
2019-06-08T02:33:25.190Z,13.22
2019-06-08T02:34:25.214Z,13.20
2019-06-08T02:35:25.181Z,13.16
2019-06-08T02:36:25.318Z,13.13
2019-06-08T02:37:25.159Z,13.12
2019-06-08T02:38:25.133Z,13.12
2019-06-08T02:39:25.210Z,13.16
2019-06-08T02:40:25.156Z,13.20
2019-06-08T02:41:25.108Z,13.28
2019-06-08T02:42:25.207Z,13.27
2019-06-08T02:43:25.087Z,13.27
2019-06-08T02:44:25.072Z,13.23
2019-06-08T02:45:25.129Z,13.22
2019-06-08T02:46:25.064Z,13.18
2019-06-08T02:47:25.062Z,13.22
2019-06-08T02:48:25.018Z,13.20
2019-06-08T02:49:25.025Z,13.20
2019-06-08T02:50:25.002Z,13.28
2019-06-08T02:51:25.077Z,13.28
2019-06-08T02:52:25.031Z,13.23
2019-06-08T02:53:24.972Z,13.16
2019-06-08T02:54:24.961Z,13.12
2019-06-08T02:55:24.960Z,13.11
2019-06-08T02:56:24.992Z,13.11
2019-06-08T02:57:24.969Z,13.15
2019-06-08T02:58:24.942Z,13.16
2019-06-08T02:59:24.915Z,13.15
2019-06-08T03:00:24.922Z,13.08
2019-06-08T03:01:24.935Z,13.01
2019-06-08T03:02:24.871Z,12.95
2019-06-08T03:03:24.909Z,12.95
2019-06-08T03:04:24.846Z,12.94
2019-06-08T03:05:24.853Z,12.94
2019-06-08T03:06:24.908Z,12.93
2019-06-08T03:07:24.823Z,12.87
2019-06-08T03:08:24.819Z,12.87
2019-06-08T03:09:24.792Z,12.83
2019-06-08T03:10:24.871Z,12.80
2019-06-08T03:11:24.812Z,12.80
2019-06-08T03:12:24.759Z,12.85
2019-06-08T03:13:24.749Z,12.87
2019-06-08T03:14:24.788Z,12.91
2019-06-08T03:15:24.817Z,12.90
2019-06-08T03:16:24.744Z,12.91
2019-06-08T03:17:24.715Z,12.87
2019-06-08T03:18:24.698Z,12.83
2019-06-08T03:19:24.685Z,12.80
2019-06-08T03:20:24.681Z,12.82
2019-06-08T03:21:24.693Z,12.85
2019-06-08T03:22:24.670Z,12.85
2019-06-08T03:23:24.635Z,12.86
2019-06-08T03:24:24.640Z,12.83
2019-06-08T03:25:24.625Z,12.83
2019-06-08T03:26:24.653Z,12.90
2019-06-08T03:27:24.622Z,12.93
2019-06-08T03:28:24.600Z,12.93
2019-06-08T03:29:24.576Z,12.86
2019-06-08T03:30:24.621Z,12.85
2019-06-08T03:31:24.576Z,12.86
2019-06-08T03:32:24.651Z,12.85
2019-06-08T03:33:24.548Z,12.83
2019-06-08T03:34:24.561Z,12.82
2019-06-08T03:35:24.571Z,12.80
2019-06-08T03:36:24.507Z,12.75
2019-06-08T03:37:24.509Z,12.76
2019-06-08T03:38:24.510Z,12.78
2019-06-08T03:39:24.459Z,12.79
2019-06-08T03:40:24.471Z,12.82
2019-06-08T03:41:24.441Z,12.85
2019-06-08T03:42:24.460Z,12.87
2019-06-08T03:43:24.414Z,12.94
2019-06-08T03:44:24.410Z,12.98
2019-06-08T03:45:24.408Z,13.00
2019-06-08T03:46:24.458Z,12.98
2019-06-08T03:47:24.381Z,13.04
2019-06-08T03:48:24.465Z,13.05
2019-06-08T03:49:40.559Z,13.08
2019-06-08T03:50:25.397Z,13.08
2019-06-08T03:51:24.411Z,13.05
2019-06-08T03:52:24.332Z,13.09
2019-06-08T03:53:24.329Z,13.09
2019-06-08T03:54:24.386Z,13.09
2019-06-08T03:55:24.298Z,13.09
2019-06-08T03:56:24.300Z,13.08
2019-06-08T03:57:24.268Z,13.08
2019-06-08T03:58:24.270Z,13.08
2019-06-08T03:59:24.242Z,13.09
2019-06-08T04:00:24.282Z,13.11
2019-06-08T04:01:24.231Z,13.15
2019-06-08T04:02:24.214Z,13.15
2019-06-08T04:03:24.197Z,13.18
2019-06-08T04:04:24.190Z,13.18
2019-06-08T04:05:24.259Z,13.18
2019-06-08T04:06:24.170Z,13.22
2019-06-08T04:07:24.204Z,13.20
2019-06-08T04:08:24.159Z,13.25
2019-06-08T04:09:24.134Z,13.28
2019-06-08T04:10:24.255Z,13.27
2019-06-08T04:11:24.108Z,13.27
2019-06-08T04:12:24.132Z,13.23
2019-06-08T04:13:24.098Z,13.22
2019-06-08T04:14:24.079Z,13.22
2019-06-08T04:15:24.066Z,13.19
2019-06-08T04:16:24.087Z,13.20
2019-06-08T04:17:24.044Z,13.22
2019-06-08T04:18:24.056Z,13.25
2019-06-08T04:19:24.036Z,13.28
2019-06-08T04:20:23.999Z,13.30
2019-06-08T04:21:24.066Z,13.28
2019-06-08T04:22:24.004Z,13.30
2019-06-08T04:23:23.971Z,13.35
2019-06-08T04:24:23.974Z,13.37
2019-06-08T04:25:23.958Z,13.41
2019-06-08T04:26:23.970Z,13.44
2019-06-08T04:27:23.949Z,13.42
2019-06-08T04:28:24.012Z,13.42
2019-06-08T04:29:23.913Z,13.42
2019-06-08T04:30:23.897Z,13.44
2019-06-08T04:31:23.917Z,13.47
2019-06-08T04:32:23.871Z,13.50
2019-06-08T04:33:23.867Z,13.53
2019-06-08T04:34:23.869Z,13.54
2019-06-08T04:35:23.839Z,13.54
2019-06-08T04:36:23.912Z,13.53
2019-06-08T04:37:23.838Z,13.53
2019-06-08T04:38:23.827Z,13.52
2019-06-08T04:39:23.796Z,13.52
2019-06-08T04:40:23.815Z,13.59
2019-06-08T04:41:23.780Z,13.63
2019-06-08T04:42:23.831Z,13.85
2019-06-08T04:43:23.753Z,14.15
2019-06-08T04:44:23.740Z,14.18
2019-06-08T04:45:23.755Z,14.05
2019-06-08T04:46:23.728Z,13.96
2019-06-08T04:47:23.718Z,13.90
2019-06-08T04:48:23.737Z,13.86
2019-06-08T04:49:23.680Z,13.85
2019-06-08T04:50:24.342Z,13.83
2019-06-08T04:51:23.664Z,13.75
2019-06-08T04:52:23.711Z,13.72
2019-06-08T04:53:23.640Z,13.74
2019-06-08T04:54:23.637Z,13.78
2019-06-08T04:55:23.619Z,13.79
2019-06-08T04:56:23.628Z,13.78
2019-06-08T04:57:23.627Z,13.71
2019-06-08T04:58:23.582Z,13.68
2019-06-08T04:59:23.602Z,13.70
2019-06-08T05:00:23.560Z,13.70
2019-06-08T05:01:23.556Z,13.72
2019-06-08T05:02:23.539Z,13.77
2019-06-08T05:03:23.525Z,13.83
2019-06-08T05:04:23.576Z,13.90
2019-06-08T05:05:23.509Z,13.96
2019-06-08T05:06:23.498Z,14.05
2019-06-08T05:07:23.498Z,14.07
2019-06-08T05:08:23.467Z,14.07
2019-06-08T05:09:23.515Z,14.11
2019-06-08T05:10:23.495Z,14.14
2019-06-08T05:11:23.458Z,14.20
2019-06-08T05:12:23.436Z,14.28
2019-06-08T05:13:23.414Z,14.30
2019-06-08T05:14:23.470Z,14.32
2019-06-08T05:15:23.395Z,14.33
2019-06-08T05:16:23.469Z,14.29
2019-06-08T05:17:23.378Z,14.29
2019-06-08T05:18:25.972Z,14.26
2019-06-08T05:19:23.426Z,14.20
2019-06-08T05:20:37.828Z,14.14
2019-06-08T05:21:24.335Z,14.18
2019-06-08T05:22:23.337Z,14.12
2019-06-08T05:23:23.314Z,14.12
2019-06-08T05:24:23.366Z,14.15
2019-06-08T05:25:23.314Z,14.23
2019-06-08T05:26:23.279Z,14.33
2019-06-08T05:27:23.265Z,14.37
2019-06-08T05:28:23.262Z,14.47
2019-06-08T05:29:23.251Z,14.58
2019-06-08T05:30:23.263Z,14.54
2019-06-08T05:31:23.215Z,14.53
2019-06-08T05:32:23.218Z,14.58
2019-06-08T05:33:23.213Z,14.48
2019-06-08T05:34:23.196Z,14.50
2019-06-08T05:35:23.248Z,14.58
2019-06-08T05:36:23.186Z,14.63
2019-06-08T05:37:23.194Z,14.68
2019-06-08T05:38:23.149Z,14.68
2019-06-08T05:39:23.134Z,14.66
2019-06-08T05:40:23.162Z,14.70
2019-06-08T05:41:24.246Z,14.60
2019-06-08T05:42:23.105Z,14.63
2019-06-08T05:43:23.091Z,14.66
2019-06-08T05:44:23.078Z,14.66
2019-06-08T05:45:23.129Z,14.69
2019-06-08T05:46:23.138Z,14.68
2019-06-08T05:47:23.075Z,14.63
2019-06-08T05:48:23.035Z,14.58
2019-06-08T05:49:23.024Z,14.51
2019-06-08T05:50:23.018Z,14.47
2019-06-08T05:51:23.055Z,14.58
2019-06-08T05:52:22.997Z,14.69
2019-06-08T05:53:22.998Z,14.78
2019-06-08T05:54:22.964Z,14.70
2019-06-08T05:55:22.964Z,14.68
2019-06-08T05:56:23.019Z,14.65
2019-06-08T05:57:22.944Z,14.70
2019-06-08T05:58:22.932Z,14.73
2019-06-08T05:59:22.955Z,14.84
2019-06-08T06:00:22.931Z,14.96
2019-06-08T06:01:22.938Z,15.07
2019-06-08T06:02:22.918Z,15.02
2019-06-08T06:03:22.888Z,14.94
2019-06-08T06:04:22.910Z,14.88
2019-06-08T06:05:22.848Z,14.81
2019-06-08T06:06:22.911Z,14.72
2019-06-08T06:07:23.041Z,14.68
2019-06-08T06:08:22.830Z,14.69
2019-06-08T06:09:22.819Z,14.85
2019-06-08T06:10:22.802Z,15.00
2019-06-08T06:11:22.788Z,15.04
2019-06-08T06:12:22.805Z,15.07
2019-06-08T06:13:22.803Z,14.86
2019-06-08T06:14:22.768Z,14.86
2019-06-08T06:15:22.743Z,15.03
2019-06-08T06:16:22.734Z,15.02
2019-06-08T06:17:22.741Z,15.06
2019-06-08T06:18:22.827Z,15.04
2019-06-08T06:19:22.703Z,15.10
2019-06-08T06:20:22.678Z,15.14
2019-06-08T06:21:22.675Z,15.17
2019-06-08T06:22:22.661Z,15.21
2019-06-08T06:23:22.689Z,15.24
2019-06-08T06:24:22.648Z,15.10
2019-06-08T06:25:22.678Z,15.09
2019-06-08T06:26:22.659Z,15.15
2019-06-08T06:27:22.615Z,15.19
2019-06-08T06:28:22.600Z,15.21
2019-06-08T06:29:22.618Z,15.22
2019-06-08T06:30:22.624Z,15.19
2019-06-08T06:31:22.570Z,15.17
2019-06-08T06:32:22.560Z,15.17
2019-06-08T06:33:22.595Z,15.21
2019-06-08T06:34:22.564Z,15.25
2019-06-08T06:35:22.520Z,15.29
2019-06-08T06:36:22.614Z,15.25
2019-06-08T06:37:22.516Z,15.14
2019-06-08T06:38:22.489Z,15.02
2019-06-08T06:39:22.694Z,15.06
2019-06-08T06:40:22.471Z,15.09
2019-06-08T06:41:22.478Z,15.04
2019-06-08T06:42:24.846Z,15.00
2019-06-08T06:43:22.447Z,15.02
2019-06-08T06:44:22.438Z,15.04
2019-06-08T06:45:22.429Z,15.02
2019-06-08T06:46:22.451Z,14.92
2019-06-08T06:47:22.412Z,14.85
2019-06-08T06:48:23.616Z,14.88
2019-06-08T06:49:22.407Z,14.91
2019-06-08T06:50:22.418Z,14.91
2019-06-08T06:51:26.335Z,14.85
2019-06-08T06:52:22.362Z,14.88
2019-06-08T06:53:22.320Z,14.91
2019-06-08T06:54:22.311Z,14.92
2019-06-08T06:55:25.258Z,14.97
2019-06-08T06:56:22.326Z,14.99
2019-06-08T06:57:22.277Z,15.06
2019-06-08T06:58:22.258Z,15.15
2019-06-08T06:59:22.262Z,15.19
2019-06-08T07:00:22.235Z,15.18
2019-06-08T07:01:22.248Z,15.15
2019-06-08T07:02:22.250Z,15.06
2019-06-08T07:03:22.379Z,15.03
2019-06-08T07:04:22.197Z,14.97
2019-06-08T07:05:22.198Z,14.97
2019-06-08T07:06:22.209Z,14.99
2019-06-08T07:07:22.191Z,14.94
2019-06-08T07:08:22.174Z,14.97
2019-06-08T07:09:22.124Z,15.04
2019-06-08T07:10:22.115Z,15.06
2019-06-08T07:11:22.149Z,15.11
2019-06-08T07:12:22.166Z,15.14
2019-06-08T07:13:22.114Z,15.10
2019-06-08T07:14:22.089Z,15.10
2019-06-08T07:15:22.095Z,15.14
2019-06-08T07:16:22.130Z,15.06
2019-06-08T07:17:22.089Z,14.97
2019-06-08T07:18:22.034Z,14.92
2019-06-08T07:19:22.041Z,14.99
2019-06-08T07:20:22.007Z,14.96
2019-06-08T07:21:21.996Z,14.99
2019-06-08T07:22:22.067Z,15.04
2019-06-08T07:23:21.978Z,15.06
2019-06-08T07:24:21.984Z,15.04
2019-06-08T07:25:21.957Z,15.22
2019-06-08T07:26:21.941Z,15.37
2019-06-08T07:27:21.927Z,15.49
2019-06-08T07:28:21.981Z,15.54
2019-06-08T07:29:21.932Z,15.57
2019-06-08T07:30:21.938Z,15.59
2019-06-08T07:31:21.884Z,15.57
2019-06-08T07:32:21.873Z,15.42
2019-06-08T07:33:21.889Z,15.47
2019-06-08T07:34:21.855Z,15.58
2019-06-08T07:35:21.833Z,15.58
2019-06-08T07:36:21.822Z,15.52
2019-06-08T07:37:21.812Z,15.51
2019-06-08T07:38:21.829Z,15.43
2019-06-08T07:39:21.795Z,15.39
2019-06-08T07:40:21.841Z,15.33
2019-06-08T07:41:21.768Z,15.24
2019-06-08T07:42:21.756Z,15.18
2019-06-08T07:43:21.833Z,15.15
2019-06-08T07:44:21.739Z,15.15
2019-06-08T07:45:21.761Z,15.09
2019-06-08T07:46:21.805Z,15.04
2019-06-08T07:47:21.701Z,15.02
2019-06-08T07:48:21.696Z,15.02
2019-06-08T07:49:21.759Z,15.02
2019-06-08T07:50:21.699Z,15.00
2019-06-08T07:51:21.656Z,15.00
2019-06-08T07:52:21.644Z,14.99
2019-06-08T07:53:21.644Z,14.97
2019-06-08T07:54:21.655Z,14.88
2019-06-08T07:55:21.602Z,14.85
2019-06-08T07:56:21.606Z,14.86
2019-06-08T07:57:21.588Z,14.86
2019-06-08T07:58:21.648Z,14.85
2019-06-08T07:59:21.597Z,14.86
2019-06-08T08:00:21.568Z,14.84
2019-06-08T08:01:35.223Z,14.85
2019-06-08T08:02:22.548Z,14.85
2019-06-08T08:03:21.526Z,14.84
2019-06-08T08:04:21.537Z,14.82
2019-06-08T08:05:21.510Z,14.85
2019-06-08T08:06:21.509Z,14.86
2019-06-08T08:07:21.481Z,14.94
2019-06-08T08:08:21.489Z,14.96
2019-06-08T08:09:21.457Z,14.97
2019-06-08T08:10:21.463Z,15.00
2019-06-08T08:11:21.439Z,15.02
2019-06-08T08:12:21.421Z,15.03
2019-06-08T08:13:21.493Z,15.03
2019-06-08T08:14:21.410Z,15.07
2019-06-08T08:15:21.466Z,15.15
2019-06-08T08:16:21.487Z,15.17
2019-06-08T08:17:21.360Z,15.19
2019-06-08T08:18:21.360Z,15.19
2019-06-08T08:19:21.364Z,15.21
2019-06-08T08:20:21.400Z,15.37
2019-06-08T08:21:26.036Z,15.59
2019-06-08T08:22:26.165Z,15.83
2019-06-08T08:23:22.365Z,16.12
2019-06-08T08:24:21.317Z,16.13
2019-06-08T08:25:21.290Z,16.20
2019-06-08T08:26:21.317Z,16.23
2019-06-08T08:27:21.276Z,16.24
2019-06-08T08:28:21.250Z,16.10
2019-06-08T08:29:21.229Z,16.01
2019-06-08T08:30:21.235Z,15.86
2019-06-08T08:31:21.365Z,15.76
2019-06-08T08:32:21.199Z,15.70
2019-06-08T08:33:21.207Z,15.59
2019-06-08T08:34:21.176Z,15.51
2019-06-08T08:35:21.171Z,15.51
2019-06-08T08:36:21.186Z,15.51
2019-06-08T08:37:21.153Z,15.44
2019-06-08T08:38:21.159Z,15.39
2019-06-08T08:39:21.297Z,15.39
2019-06-08T08:40:21.110Z,15.42
2019-06-08T08:41:21.100Z,15.46
2019-06-08T08:42:21.150Z,15.44
2019-06-08T08:43:23.035Z,15.36
2019-06-08T08:44:21.076Z,15.31
2019-06-08T08:45:21.056Z,15.29
2019-06-08T08:46:21.059Z,15.28
2019-06-08T08:47:21.031Z,15.25
2019-06-08T08:48:28.015Z,15.19
2019-06-08T08:49:22.010Z,15.17
2019-06-08T08:50:21.019Z,15.19
2019-06-08T08:51:20.985Z,15.25
2019-06-08T08:52:33.616Z,15.31
2019-06-08T08:53:22.039Z,15.29
2019-06-08T08:54:20.968Z,15.28
2019-06-08T08:55:20.931Z,15.28
2019-06-08T08:56:20.920Z,15.29
2019-06-08T08:57:20.944Z,15.35
2019-06-08T08:58:20.908Z,15.40
2019-06-08T08:59:20.878Z,15.42
2019-06-08T09:00:20.876Z,15.39
2019-06-08T09:01:20.904Z,15.44
2019-06-08T09:02:21.469Z,15.54
2019-06-08T09:03:28.762Z,15.51
2019-06-08T09:04:21.868Z,15.58
2019-06-08T09:05:20.837Z,15.58
2019-06-08T09:06:20.825Z,15.57
2019-06-08T09:07:20.863Z,15.59
2019-06-08T09:08:23.232Z,15.67
2019-06-08T09:09:21.682Z,15.67
2019-06-08T09:10:20.809Z,15.72
2019-06-08T09:11:20.871Z,15.73
2019-06-08T09:12:20.875Z,15.72
2019-06-08T09:13:20.810Z,15.76
2019-06-08T09:14:20.756Z,15.75
2019-06-08T09:15:20.710Z,15.88
2019-06-08T09:16:20.706Z,15.97
2019-06-08T09:17:20.689Z,16.08
2019-06-08T09:18:20.687Z,16.04
2019-06-08T09:19:21.020Z,16.08
2019-06-08T09:20:20.720Z,16.12
2019-06-08T09:21:20.645Z,16.13
2019-06-08T09:22:20.705Z,16.15
2019-06-08T09:23:21.895Z,16.23
2019-06-08T09:24:20.718Z,16.17
2019-06-08T09:25:20.605Z,16.31
2019-06-08T09:26:20.610Z,16.42
2019-06-08T09:27:20.578Z,16.39
2019-06-08T09:28:20.569Z,16.38
2019-06-08T09:29:20.568Z,16.36
2019-06-08T09:30:20.575Z,16.49
2019-06-08T09:31:20.572Z,16.51
2019-06-08T09:32:20.521Z,16.57
2019-06-08T09:33:20.533Z,16.56
2019-06-08T09:34:20.667Z,16.56
2019-06-08T09:35:21.378Z,16.61
2019-06-08T09:36:20.491Z,16.56
2019-06-08T09:37:20.475Z,16.56
2019-06-08T09:38:20.462Z,16.53
2019-06-08T09:39:20.569Z,16.47
2019-06-08T09:40:20.436Z,16.43
2019-06-08T09:41:20.431Z,16.39
2019-06-08T09:42:21.232Z,16.35
2019-06-08T09:43:20.454Z,16.23
2019-06-08T09:44:20.393Z,16.17
2019-06-08T09:45:20.388Z,16.08
2019-06-08T09:46:20.378Z,16.02
2019-06-08T09:47:20.357Z,16.04
2019-06-08T09:48:20.508Z,16.02
2019-06-08T09:49:20.339Z,16.08
2019-06-08T09:50:20.322Z,15.97
2019-06-08T09:51:20.318Z,16.05
2019-06-08T09:52:21.734Z,16.10
2019-06-08T09:53:28.510Z,16.20
2019-06-08T09:54:21.289Z,16.21
2019-06-08T09:55:20.378Z,16.31
2019-06-08T09:56:20.272Z,16.36
2019-06-08T09:57:20.350Z,16.38
2019-06-08T09:58:20.251Z,16.21
2019-06-08T09:59:20.253Z,16.20
2019-06-08T10:00:22.244Z,16.28
2019-06-08T10:01:21.205Z,16.24
2019-06-08T10:02:20.212Z,16.08
2019-06-08T10:03:20.192Z,16.13
2019-06-08T10:04:20.218Z,16.20
2019-06-08T10:05:20.165Z,16.23
2019-06-08T10:06:20.164Z,16.29
2019-06-08T10:07:20.127Z,16.28
2019-06-08T10:08:20.835Z,16.31
2019-06-08T10:09:20.148Z,16.29
2019-06-08T10:10:20.270Z,16.29
2019-06-08T10:11:20.106Z,16.38
2019-06-08T10:12:20.089Z,16.35
2019-06-08T10:13:20.078Z,16.42
2019-06-08T10:14:20.141Z,16.57
2019-06-08T10:15:20.092Z,16.60
2019-06-08T10:16:20.061Z,16.64
2019-06-08T10:17:21.029Z,16.53
2019-06-08T10:18:20.029Z,16.38
2019-06-08T10:19:20.067Z,16.53
2019-06-08T10:20:20.050Z,16.65
2019-06-08T10:21:21.108Z,16.86
2019-06-08T10:22:19.976Z,17.11
2019-06-08T10:23:30.622Z,17.26
2019-06-08T10:24:21.038Z,17.20
2019-06-08T10:25:19.950Z,17.11
2019-06-08T10:26:19.928Z,16.97
2019-06-08T10:27:19.920Z,16.76
2019-06-08T10:28:21.762Z,16.75
2019-06-08T10:29:19.973Z,16.75
2019-06-08T10:30:19.899Z,16.72
2019-06-08T10:31:33.182Z,16.66
2019-06-08T10:32:20.863Z,16.68
2019-06-08T10:33:19.869Z,16.87
2019-06-08T10:34:19.907Z,16.93
2019-06-08T10:35:20.991Z,17.04
2019-06-08T10:36:19.837Z,17.14
2019-06-08T10:37:19.827Z,17.20
2019-06-08T10:38:19.823Z,17.27
2019-06-08T10:39:19.799Z,17.49
2019-06-08T10:40:19.808Z,17.68
2019-06-08T10:41:21.882Z,17.85
2019-06-08T10:42:19.759Z,17.98
2019-06-08T10:43:19.991Z,17.80
2019-06-08T10:44:19.738Z,18.03
2019-06-08T10:45:19.801Z,18.04
2019-06-08T10:46:20.806Z,18.03
2019-06-08T10:47:19.715Z,18.29
2019-06-08T10:48:19.691Z,18.50
2019-06-08T10:49:19.959Z,18.55
2019-06-08T10:50:19.854Z,18.60
2019-06-08T10:51:19.681Z,18.55
2019-06-08T10:52:20.328Z,18.55
2019-06-08T10:53:19.657Z,18.58
2019-06-08T10:54:19.656Z,18.65
2019-06-08T10:55:19.672Z,18.63
2019-06-08T10:56:19.613Z,18.45
2019-06-08T10:57:19.670Z,18.41
2019-06-08T10:58:19.715Z,18.40
2019-06-08T10:59:19.565Z,18.31
2019-06-08T11:00:23.536Z,18.15
2019-06-08T11:01:19.586Z,18.03
2019-06-08T11:02:19.565Z,18.04
2019-06-08T11:03:19.521Z,18.05
2019-06-08T11:04:19.554Z,18.01
2019-06-08T11:05:19.548Z,18.11
2019-06-08T11:06:19.526Z,18.20
2019-06-08T11:07:19.482Z,18.52
2019-06-08T11:08:19.470Z,18.47
2019-06-08T11:09:19.604Z,18.52
2019-06-08T11:10:19.518Z,18.43
2019-06-08T11:11:20.476Z,18.43
2019-06-08T11:12:19.434Z,18.44
2019-06-08T11:13:19.413Z,18.60
2019-06-08T11:14:22.524Z,18.66
2019-06-08T11:15:19.472Z,18.59
2019-06-08T11:16:19.389Z,18.59
2019-06-08T11:17:19.366Z,18.52
2019-06-08T11:18:19.364Z,18.59
2019-06-08T11:19:19.486Z,18.70
2019-06-08T11:20:19.404Z,18.75
2019-06-08T11:21:19.369Z,18.62
2019-06-08T11:22:19.320Z,18.70
2019-06-08T11:23:19.336Z,18.75
2019-06-08T11:24:24.674Z,19.09
2019-06-08T11:25:20.333Z,19.41
2019-06-08T11:26:24.099Z,19.47
2019-06-08T11:27:20.253Z,19.45
2019-06-08T11:28:19.259Z,19.37
2019-06-08T11:29:19.238Z,19.55
2019-06-08T11:30:23.653Z,19.54
2019-06-08T11:31:20.230Z,19.45
2019-06-08T11:32:19.188Z,19.41
2019-06-08T11:33:19.274Z,19.30
2019-06-08T11:34:21.872Z,19.14
2019-06-08T11:35:19.167Z,19.12
2019-06-08T11:36:19.309Z,19.11
2019-06-08T11:37:41.145Z,19.37
2019-06-08T11:38:20.239Z,19.04
2019-06-08T11:39:19.120Z,19.09
2019-06-08T11:40:20.766Z,19.12
2019-06-08T11:41:22.623Z,19.00
2019-06-08T11:42:19.310Z,18.93
2019-06-08T11:43:19.094Z,18.78
2019-06-08T11:44:19.073Z,18.50
2019-06-08T11:45:19.055Z,18.40
2019-06-08T11:46:21.846Z,18.44
2019-06-08T11:47:19.084Z,18.70
2019-06-08T11:48:19.025Z,18.88
2019-06-08T11:49:19.126Z,18.98
2019-06-08T11:50:19.029Z,19.09
2019-06-08T11:51:19.136Z,19.04
2019-06-08T11:52:18.994Z,19.21
2019-06-08T11:53:18.980Z,19.40
2019-06-08T11:54:32.315Z,19.62
2019-06-08T11:55:19.952Z,19.81
2019-06-08T11:56:18.991Z,19.70
2019-06-08T11:57:18.949Z,19.73
2019-06-08T11:58:22.677Z,19.89
2019-06-08T11:59:18.899Z,19.79
2019-06-08T12:00:27.402Z,19.92
2019-06-08T12:01:19.937Z,19.77
2019-06-08T12:02:18.878Z,19.67
2019-06-08T12:03:18.872Z,19.86
2019-06-08T12:04:18.888Z,19.69
2019-06-08T12:05:18.897Z,19.71
2019-06-08T12:06:18.846Z,19.70
2019-06-08T12:07:18.885Z,19.52
2019-06-08T12:08:20.918Z,19.58
2019-06-08T12:09:19.090Z,19.58
2019-06-08T12:10:18.816Z,19.49
2019-06-08T12:11:20.910Z,19.29
2019-06-08T12:12:21.287Z,18.88
2019-06-08T12:13:18.762Z,18.78
2019-06-08T12:14:18.754Z,18.92
2019-06-08T12:15:21.198Z,19.24
2019-06-08T12:16:22.002Z,19.49
2019-06-08T12:17:22.241Z,19.51
2019-06-08T12:18:18.698Z,19.58
2019-06-08T12:19:20.853Z,19.67
2019-06-08T12:20:21.296Z,19.69
2019-06-08T12:21:19.671Z,19.62
2019-06-08T12:22:21.659Z,19.67
2019-06-08T12:23:18.684Z,19.94
2019-06-08T12:24:18.678Z,20.14
2019-06-08T12:25:18.631Z,20.25
2019-06-08T12:26:18.700Z,20.21
2019-06-08T12:27:26.851Z,20.11
2019-06-08T12:28:19.590Z,19.96
2019-06-08T12:29:19.000Z,19.77
2019-06-08T12:30:25.642Z,19.59
2019-06-08T12:31:22.604Z,19.62
2019-06-08T12:32:18.587Z,19.69
2019-06-08T12:33:19.875Z,19.67
2019-06-08T12:34:18.704Z,19.51
2019-06-08T12:35:18.554Z,19.30
2019-06-08T12:36:20.732Z,19.27
2019-06-08T12:37:22.189Z,19.14
2019-06-08T12:38:19.169Z,19.18
2019-06-08T12:39:19.723Z,19.30
2019-06-08T12:40:20.486Z,19.22
2019-06-08T12:41:19.420Z,19.37
2019-06-08T12:42:22.970Z,19.52
2019-06-08T12:43:20.336Z,19.85
2019-06-08T12:44:21.717Z,20.16
2019-06-08T12:45:20.317Z,20.43
2019-06-08T12:46:20.917Z,20.47
2019-06-08T12:47:24.720Z,20.58
2019-06-08T12:48:23.477Z,20.60
2019-06-08T12:49:20.473Z,20.59
2019-06-08T12:50:18.354Z,20.74
2019-06-08T12:51:19.937Z,20.85
2019-06-08T12:52:22.203Z,20.74